createdAt,value
2022-09-03T00:01:35.008Z,55.20
2022-09-03T00:05:22.983Z,58.89
2022-09-03T00:09:32.967Z,58.25
2022-09-03T00:12:59.085Z,58.41
2022-09-03T00:16:26.010Z,56.17
2022-09-03T00:19:54.980Z,55.71
2022-09-03T00:23:25.960Z,56.04
2022-09-03T00:26:50.996Z,54.13
2022-09-03T00:30:17.325Z,52.24
2022-09-03T00:33:37.995Z,54.60
2022-09-03T00:37:01.963Z,53.49
2022-09-03T00:40:41.986Z,53.12
2022-09-03T00:44:23.003Z,53.49
2022-09-03T00:48:01.990Z,56.37
2022-09-03T00:51:51.005Z,57.08
2022-09-03T00:55:14.975Z,57.52
2022-09-03T00:58:46.002Z,57.25
2022-09-03T01:02:41.112Z,56.40
2022-09-03T01:06:30.997Z,55.14
2022-09-03T01:10:09.002Z,55.13
2022-09-03T01:13:51.996Z,55.38
2022-09-03T01:18:04.011Z,57.92
2022-09-03T01:21:50.023Z,57.34
2022-09-03T01:25:40.977Z,55.27
2022-09-03T01:29:24.012Z,55.90
2022-09-03T01:32:59.548Z,58.07
2022-09-03T01:36:21.024Z,58.39
2022-09-03T01:39:57.066Z,55.33
2022-09-03T01:43:31.029Z,53.03
2022-09-03T01:46:59.010Z,51.95
2022-09-03T01:50:31.029Z,54.39
2022-09-03T01:54:32.999Z,49.59
2022-09-03T01:58:14.021Z,52.67
2022-09-03T02:01:52.074Z,54.17
2022-09-03T02:05:24.025Z,53.88
2022-09-03T02:08:47.003Z,53.09
2022-09-03T02:12:42.047Z,54.88
2022-09-03T02:16:08.090Z,53.69
2022-09-03T02:19:32.056Z,53.08
2022-09-03T02:22:56.034Z,54.61
2022-09-03T02:26:20.054Z,54.99
2022-09-03T02:29:43.998Z,54.93
2022-09-03T02:33:09.008Z,55.19
2022-09-03T02:36:36.989Z,54.77
2022-09-03T02:40:02.139Z,55.34
2022-09-03T02:43:48.965Z,57.60
2022-09-03T02:47:20.055Z,58.83
2022-09-03T02:50:45.009Z,58.82
2022-09-03T02:54:09.009Z,59.77
2022-09-03T02:57:32.967Z,60.69
2022-09-03T03:00:57.110Z,61.97
2022-09-03T03:04:21.007Z,63.98
2022-09-03T03:07:48.073Z,64.41
2022-09-03T03:11:13.004Z,64.85
2022-09-03T03:14:38.062Z,65.24
2022-09-03T03:18:02.041Z,69.30
2022-09-03T03:21:28.068Z,68.80
2022-09-03T03:24:51.040Z,69.85
2022-09-03T03:28:14.990Z,73.19
2022-09-03T03:31:39.071Z,74.23
2022-09-03T03:34:56.614Z,74.78
2022-09-03T03:38:14.038Z,73.61
2022-09-03T03:41:40.033Z,76.03
2022-09-03T03:45:04.110Z,74.29
2022-09-03T03:48:28.063Z,73.41
2022-09-03T03:51:52.166Z,73.60
2022-09-03T03:55:17.035Z,73.43
2022-09-03T03:58:40.049Z,74.48
2022-09-03T04:02:04.087Z,73.60
2022-09-03T04:05:31.796Z,75.71
2022-09-03T04:09:00.043Z,84.53
2022-09-03T04:12:27.090Z,86.56
2022-09-03T04:15:51.999Z,86.81
2022-09-03T04:19:16.094Z,89.24
2022-09-03T04:22:40.089Z,92.12
2022-09-03T04:26:08.030Z,100.00
2022-09-03T04:29:33.103Z,100.00
2022-09-03T04:33:04.000Z,100.00
2022-09-03T04:36:30.105Z,100.00
2022-09-03T04:39:54.194Z,100.00
2022-09-03T04:43:19.026Z,100.00
2022-09-03T04:46:44.092Z,100.00
2022-09-03T04:50:09.060Z,100.00
2022-09-03T04:53:33.009Z,100.00
2022-09-03T04:56:58.068Z,100.00
2022-09-03T05:00:26.072Z,100.00
2022-09-03T05:03:50.061Z,100.00
2022-09-03T05:07:14.035Z,100.00
2022-09-03T05:10:37.243Z,100.00
2022-09-03T05:14:05.075Z,100.00
2022-09-03T05:17:29.072Z,100.00
2022-09-03T05:20:53.024Z,100.00
2022-09-03T05:24:17.052Z,100.00
2022-09-03T05:27:41.046Z,100.00
2022-09-03T05:31:15.121Z,100.00
2022-09-03T05:34:38.054Z,100.00
2022-09-03T05:38:04.113Z,100.00
2022-09-03T05:41:30.064Z,100.00
2022-09-03T05:44:54.057Z,100.00
2022-09-03T05:48:18.100Z,100.00
2022-09-03T05:51:42.071Z,100.00
2022-09-03T05:55:06.105Z,100.00
2022-09-03T05:58:30.074Z,100.00
2022-09-03T06:02:00.132Z,100.00
2022-09-03T06:05:27.123Z,100.00
2022-09-03T06:08:53.105Z,100.00
2022-09-03T06:12:17.118Z,100.00
2022-09-03T06:15:41.061Z,100.00
2022-09-03T06:19:07.127Z,100.00
2022-09-03T06:22:33.098Z,100.00
2022-09-03T06:26:00.080Z,100.00
2022-09-03T06:29:29.061Z,100.00
2022-09-03T06:33:02.153Z,100.00
2022-09-03T06:36:28.071Z,100.00
2022-09-03T06:39:53.155Z,100.00
2022-09-03T06:43:19.105Z,100.00
2022-09-03T06:46:43.169Z,100.00
2022-09-03T06:50:08.129Z,100.00
2022-09-03T06:53:33.148Z,100.00
2022-09-03T06:56:57.074Z,100.00
2022-09-03T07:00:21.124Z,100.00
2022-09-03T07:03:45.092Z,100.00
2022-09-03T07:07:10.107Z,100.00
2022-09-03T07:10:36.101Z,100.00
2022-09-03T07:14:02.157Z,100.00
2022-09-03T07:17:26.119Z,100.00
2022-09-03T07:20:49.115Z,100.00
2022-09-03T07:24:13.114Z,100.00
2022-09-03T07:27:36.114Z,100.00
2022-09-03T07:31:01.102Z,100.00
2022-09-03T07:34:28.108Z,100.00
2022-09-03T07:37:53.177Z,100.00
2022-09-03T07:41:19.308Z,100.00
2022-09-03T07:44:46.173Z,100.00
2022-09-03T07:48:10.097Z,100.00
2022-09-03T07:51:36.139Z,100.00
2022-09-03T07:55:00.135Z,100.00
2022-09-03T07:58:23.251Z,100.00
2022-09-03T08:01:48.095Z,100.00
2022-09-03T08:05:13.122Z,100.00
2022-09-03T08:08:37.122Z,100.00
2022-09-03T08:12:02.142Z,100.00
2022-09-03T08:15:26.106Z,100.00
2022-09-03T08:18:51.214Z,100.00
2022-09-03T08:22:15.097Z,100.00
2022-09-03T08:25:39.192Z,100.00
2022-09-03T08:29:04.163Z,100.00
2022-09-03T08:32:29.107Z,100.00
2022-09-03T08:35:55.159Z,100.00
2022-09-03T08:39:21.166Z,100.00
2022-09-03T08:43:08.917Z,100.00
2022-09-03T08:46:26.273Z,100.00
2022-09-03T08:50:00.135Z,100.00
2022-09-03T08:53:48.193Z,100.00
2022-09-03T08:57:17.124Z,100.00
2022-09-03T09:00:53.145Z,100.00
2022-09-03T09:04:26.169Z,100.00
2022-09-03T09:08:13.161Z,100.00
2022-09-03T09:11:56.133Z,100.00
2022-09-03T09:15:29.180Z,100.00
2022-09-03T09:19:11.164Z,100.00
2022-09-03T09:22:47.372Z,100.00
2022-09-03T09:26:13.159Z,100.00
2022-09-03T09:29:37.185Z,100.00
2022-09-03T09:33:01.163Z,100.00
2022-09-03T09:36:30.142Z,100.00
2022-09-03T09:39:54.390Z,100.00
2022-09-03T09:43:33.175Z,100.00
2022-09-03T09:46:58.185Z,100.00
2022-09-03T09:50:33.184Z,100.00
2022-09-03T09:53:58.195Z,100.00
2022-09-03T09:57:29.176Z,100.00
2022-09-03T10:00:53.196Z,100.00
2022-09-03T10:04:32.827Z,100.00
2022-09-03T10:07:57.185Z,100.00
2022-09-03T10:11:22.139Z,100.00
2022-09-03T10:14:56.190Z,100.00
2022-09-03T10:18:37.148Z,100.00
2022-09-03T10:22:01.173Z,100.00
2022-09-03T10:25:25.179Z,100.00
2022-09-03T10:28:55.883Z,100.00
2022-09-03T10:32:25.179Z,100.00
2022-09-03T10:35:56.172Z,100.00
2022-09-03T10:39:26.197Z,100.00
2022-09-03T10:43:14.156Z,100.00
2022-09-03T10:46:42.212Z,100.00
2022-09-03T10:50:24.323Z,100.00
2022-09-03T10:54:03.161Z,100.00
2022-09-03T10:57:45.192Z,100.00
2022-09-03T11:01:14.244Z,100.00
2022-09-03T11:04:46.157Z,100.00
2022-09-03T11:08:32.231Z,100.00
2022-09-03T11:12:12.190Z,100.00
2022-09-03T11:16:07.222Z,100.00
2022-09-03T11:19:38.226Z,100.00
2022-09-03T11:23:07.198Z,100.00
2022-09-03T11:26:36.175Z,100.00
2022-09-03T11:30:23.207Z,100.00
2022-09-03T11:33:49.215Z,100.00
2022-09-03T11:37:32.234Z,100.00
2022-09-03T11:41:09.248Z,100.00
2022-09-03T11:44:28.952Z,100.00
2022-09-03T11:47:52.247Z,100.00
2022-09-03T11:51:17.287Z,100.00
2022-09-03T11:54:43.229Z,100.00
2022-09-03T11:58:08.329Z,100.00
2022-09-03T12:01:36.170Z,100.00
2022-09-03T12:05:07.269Z,100.00
2022-09-03T12:09:01.224Z,100.00
2022-09-03T12:12:36.260Z,100.00
2022-09-03T12:16:38.193Z,100.00
2022-09-03T12:20:12.288Z,100.00
2022-09-03T12:23:48.181Z,100.00
2022-09-03T12:27:14.256Z,100.00
2022-09-03T12:30:40.254Z,100.00
2022-09-03T12:34:09.226Z,100.00
2022-09-03T12:41:36.323Z,100.00
2022-09-03T12:44:53.878Z,100.00
2022-09-03T12:48:24.218Z,100.00
2022-09-03T12:51:56.341Z,100.00
2022-09-03T12:55:27.730Z,100.00
2022-09-03T12:59:07.335Z,100.00
2022-09-03T13:03:01.234Z,100.00
2022-09-03T13:06:35.276Z,100.00
2022-09-03T13:10:02.272Z,100.00
2022-09-03T13:13:52.224Z,100.00
2022-09-03T13:17:30.214Z,100.00
2022-09-03T13:21:03.227Z,100.00
2022-09-03T13:24:36.227Z,100.00
2022-09-03T13:28:15.271Z,100.00
2022-09-03T13:31:51.214Z,100.00
2022-09-03T13:35:54.304Z,100.00
2022-09-03T13:39:22.321Z,100.00
2022-09-03T13:42:53.313Z,100.00
2022-09-03T13:46:39.851Z,100.00
2022-09-03T13:50:24.346Z,100.00
2022-09-03T13:54:13.262Z,100.00
2022-09-03T13:58:04.322Z,100.00
2022-09-03T14:01:38.308Z,100.00
2022-09-03T14:05:22.254Z,100.00
2022-09-03T14:09:01.308Z,100.00
2022-09-03T14:12:39.215Z,100.00
2022-09-03T14:16:20.346Z,100.00
2022-09-03T14:20:08.269Z,100.00
2022-09-03T14:24:00.260Z,100.00
2022-09-03T14:27:24.216Z,100.00
2022-09-03T14:31:03.265Z,100.00
2022-09-03T14:34:43.297Z,100.00
2022-09-03T14:38:28.253Z,100.00
2022-09-03T14:42:22.243Z,100.00
2022-09-03T14:46:24.349Z,100.00
2022-09-03T14:50:25.897Z,100.00
2022-09-03T14:54:07.326Z,100.00
2022-09-03T14:57:56.294Z,100.00
2022-09-03T15:01:38.655Z,100.00
2022-09-03T15:05:19.284Z,100.00
2022-09-03T15:09:05.332Z,100.00
2022-09-03T15:12:30.252Z,100.00
2022-09-03T15:15:57.285Z,100.00
2022-09-03T15:19:40.309Z,100.00
2022-09-03T15:23:21.264Z,100.00
2022-09-03T15:26:54.283Z,100.00
2022-09-03T15:30:30.294Z,100.00
2022-09-03T15:34:28.305Z,100.00
2022-09-03T15:38:13.287Z,100.00
2022-09-03T15:41:56.314Z,100.00
2022-09-03T15:45:43.332Z,100.00
2022-09-03T15:49:14.489Z,100.00
2022-09-03T15:52:57.349Z,100.00
2022-09-03T15:56:36.296Z,100.00
2022-09-03T16:00:22.322Z,100.00
2022-09-03T16:04:18.343Z,100.00
2022-09-03T16:07:52.314Z,100.00
2022-09-03T16:11:25.269Z,100.00
2022-09-03T16:14:56.293Z,100.00
2022-09-03T16:18:25.448Z,100.00
2022-09-03T16:22:11.302Z,100.00
2022-09-03T16:25:50.341Z,100.00
2022-09-03T16:29:23.304Z,100.00
2022-09-03T16:32:59.314Z,100.00
2022-09-03T16:36:34.280Z,100.00
2022-09-03T16:40:32.363Z,100.00
2022-09-03T16:44:02.319Z,100.00
2022-09-03T16:47:42.315Z,100.00
2022-09-03T16:51:20.332Z,100.00
2022-09-03T16:54:56.030Z,100.00
2022-09-03T16:58:32.372Z,100.00
2022-09-03T17:02:37.073Z,100.00
2022-09-03T17:06:34.348Z,100.00
2022-09-03T17:10:18.313Z,100.00
2022-09-03T17:13:57.324Z,100.00
2022-09-03T17:17:39.310Z,100.00
2022-09-03T17:21:18.320Z,100.00
2022-09-03T17:24:50.321Z,100.00
2022-09-03T17:28:33.364Z,100.00
2022-09-03T17:32:03.345Z,100.00
2022-09-03T17:35:55.336Z,100.00
2022-09-03T17:39:39.423Z,100.00
2022-09-03T17:43:15.344Z,100.00
2022-09-03T17:47:06.371Z,100.00
2022-09-03T17:50:38.383Z,100.00
2022-09-03T17:54:05.918Z,100.00
2022-09-03T17:57:27.348Z,100.00
2022-09-03T18:01:14.344Z,100.00
2022-09-03T18:04:44.341Z,100.00
2022-09-03T18:08:17.304Z,100.00
2022-09-03T18:11:49.336Z,100.00
2022-09-03T18:15:51.397Z,100.00
2022-09-03T18:20:04.384Z,100.00
2022-09-03T18:24:05.322Z,100.00
2022-09-03T18:28:12.351Z,100.00
2022-09-03T18:31:54.356Z,100.00
2022-09-03T18:35:36.371Z,100.00
2022-09-03T18:39:18.393Z,100.00
2022-09-03T18:43:06.385Z,100.00
2022-09-03T18:51:31.367Z,100.00
2022-09-03T18:55:29.372Z,100.00
2022-09-03T18:59:21.228Z,100.00
2022-09-03T19:03:21.421Z,100.00
2022-09-03T19:07:38.324Z,100.00
2022-09-03T19:11:28.398Z,100.00
2022-09-03T19:15:43.360Z,100.00
2022-09-03T19:19:37.403Z,100.00
2022-09-03T19:23:19.394Z,100.00
2022-09-03T19:27:47.419Z,100.00
2022-09-03T19:31:57.408Z,100.00
2022-09-03T19:35:52.391Z,100.00
2022-09-03T19:39:55.519Z,100.00
2022-09-03T19:43:42.393Z,100.00
2022-09-03T19:47:25.432Z,100.00
2022-09-03T19:51:12.389Z,100.00
2022-09-03T19:54:57.440Z,100.00
2022-09-03T19:58:43.532Z,100.00
2022-09-03T20:02:26.468Z,100.00
2022-09-03T20:06:11.385Z,100.00
2022-09-03T20:09:56.392Z,100.00
2022-09-03T20:13:31.451Z,100.00
2022-09-03T20:17:00.357Z,100.00
2022-09-03T20:20:37.403Z,100.00
2022-09-03T20:24:36.455Z,100.00
2022-09-03T20:28:11.459Z,100.00
2022-09-03T20:31:40.304Z,100.00
2022-09-03T20:35:31.449Z,100.00
2022-09-03T20:39:19.463Z,100.00
2022-09-03T20:43:14.372Z,100.00
2022-09-03T20:46:59.402Z,100.00
2022-09-03T20:50:53.565Z,100.00
2022-09-03T20:54:42.663Z,100.00
2022-09-03T20:58:28.391Z,100.00
2022-09-03T21:02:17.418Z,100.00
2022-09-03T21:05:46.464Z,100.00
2022-09-03T21:09:22.410Z,100.00
2022-09-03T21:13:27.484Z,100.00
2022-09-03T21:17:03.415Z,100.00
2022-09-03T21:20:34.441Z,97.04
2022-09-03T21:24:02.365Z,90.74
2022-09-03T21:27:33.416Z,90.34
2022-09-03T21:31:00.470Z,91.32
2022-09-03T21:34:36.529Z,90.16
2022-09-03T21:38:37.471Z,87.41
2022-09-03T21:42:36.438Z,85.30
2022-09-03T21:46:28.521Z,81.20
2022-09-03T21:50:19.422Z,79.70
2022-09-03T21:53:53.426Z,79.34
2022-09-03T21:57:44.404Z,77.67
2022-09-03T22:01:14.934Z,77.38
2022-09-03T22:04:41.450Z,80.06
2022-09-03T22:08:27.486Z,82.47
2022-09-03T22:12:21.575Z,81.03
2022-09-03T22:15:46.472Z,74.80
2022-09-03T22:19:11.515Z,76.80
2022-09-03T22:23:06.430Z,76.34
2022-09-03T22:26:59.425Z,69.93
2022-09-03T22:30:23.426Z,68.70
2022-09-03T22:34:11.426Z,66.31
2022-09-03T22:38:02.451Z,64.57
2022-09-03T22:41:32.403Z,62.69
2022-09-03T22:45:08.449Z,63.85
2022-09-03T22:48:52.464Z,60.53
2022-09-03T22:52:15.496Z,61.05
2022-09-03T22:55:43.516Z,59.59
2022-09-03T22:59:18.422Z,56.14
2022-09-03T23:02:43.467Z,52.41
2022-09-03T23:06:17.520Z,57.48
2022-09-03T23:09:45.505Z,57.80
2022-09-03T23:13:22.420Z,56.59
2022-09-03T23:16:59.544Z,57.02
2022-09-03T23:20:33.458Z,56.92
2022-09-03T23:24:02.502Z,52.90
2022-09-03T23:27:33.424Z,54.98
2022-09-03T23:30:57.464Z,55.16
2022-09-03T23:34:24.495Z,51.59
2022-09-03T23:38:05.471Z,50.61
2022-09-03T23:41:35.514Z,51.86
2022-09-03T23:45:18.535Z,49.85
2022-09-03T23:49:16.477Z,50.81
2022-09-03T23:53:07.475Z,49.58
2022-09-03T23:56:54.515Z,50.67
